Time;durP1;ratioP1;P1;durP2;ratioP2;P2;SDS_P1;SDS_P2;PMS_P1;PMS_P2;Temp;Humidity;BMP_temperature;BMP_pressure;BME280_temperature;BME280_humidity;BME280_pressure;Samples;Min_cycle;Max_cycle;Signal;HPM_P1;HPM_P2
2023/12/09 00:00:47;;;;;;;43.20;14.43;;;7.50;99.90;;;;;;5039403;28;20049;-79
2023/12/09 00:03:13;;;;;;;41.75;14.57;;;7.50;99.90;;;;;;5047967;28;20045;-79
2023/12/09 00:05:38;;;;;;;41.55;15.10;;;7.50;99.90;;;;;;5044472;28;20053;-80
2023/12/09 00:08:04;;;;;;;44.17;15.75;;;7.50;99.90;;;;;;5043205;28;20037;-79
2023/12/09 00:10:30;;;;;;;51.28;15.18;;;7.50;99.90;;;;;;5047540;28;20049;-79
2023/12/09 00:12:56;;;;;;;33.85;13.65;;;7.50;99.90;;;;;;5047082;28;20498;-79
2023/12/09 00:15:21;;;;;;;42.05;14.65;;;7.50;99.90;;;;;;5046434;28;20119;-79
2023/12/09 00:17:47;;;;;;;45.25;14.23;;;7.50;99.90;;;;;;5049275;28;20045;-79
2023/12/09 00:20:12;;;;;;;37.13;14.35;;;7.50;99.90;;;;;;5045472;28;20151;-80
2023/12/09 00:22:38;;;;;;;37.55;13.60;;;7.60;99.90;;;;;;5040534;28;20057;-80
2023/12/09 00:25:06;;;;;;;50.65;14.25;;;7.60;99.90;;;;;;5048014;28;20033;-79
2023/12/09 00:27:32;;;;;;;39.05;13.52;;;7.50;99.90;;;;;;5047036;28;20438;-79
2023/12/09 00:29:57;;;;;;;34.95;13.48;;;7.60;99.90;;;;;;5048488;28;20044;-80
2023/12/09 00:32:23;;;;;;;41.95;13.75;;;7.60;99.90;;;;;;5038865;28;20045;-79
2023/12/09 00:34:48;;;;;;;46.63;15.43;;;7.60;99.90;;;;;;5045565;28;20222;-80
2023/12/09 00:37:14;;;;;;;45.13;14.27;;;7.50;99.90;;;;;;5045563;28;20488;-79
2023/12/09 00:39:40;;;;;;;48.30;15.07;;;7.60;99.90;;;;;;5044827;28;20507;-79
2023/12/09 00:42:05;;;;;;;34.35;12.45;;;7.60;99.90;;;;;;5041641;28;20128;-80
2023/12/09 00:44:31;;;;;;;41.25;13.27;;;7.60;99.90;;;;;;5044362;28;20116;-79
2023/12/09 00:46:57;;;;;;;42.10;14.00;;;7.60;99.90;;;;;;5047505;28;20534;-79
2023/12/09 00:49:23;;;;;;;28.15;12.73;;;7.60;99.90;;;;;;5048963;28;20094;-79
2023/12/09 00:51:49;;;;;;;42.03;13.68;;;7.60;99.90;;;;;;5045196;28;20126;-80
2023/12/09 00:54:14;;;;;;;42.83;13.27;;;7.60;99.90;;;;;;5043720;28;20045;-79
2023/12/09 00:56:40;;;;;;;41.67;13.90;;;7.60;99.90;;;;;;5044267;28;20385;-79
2023/12/09 00:59:05;;;;;;;38.55;14.48;;;7.60;99.90;;;;;;5044965;28;20146;-79
2023/12/09 01:01:33;;;;;;;38.47;12.52;;;7.60;99.90;;;;;;5048007;28;20068;-79
2023/12/09 01:04:00;;;;;;;;;;;7.70;99.90;;;;;;5048879;28;20053;-79
2023/12/09 01:06:26;;;;;;;33.78;11.18;;;7.60;99.90;;;;;;5043984;28;19929;-79
2023/12/09 01:08:52;;;;;;;28.95;12.43;;;7.60;99.90;;;;;;5038739;28;20553;-79
2023/12/09 01:11:17;;;;;;;34.47;13.07;;;7.60;99.90;;;;;;5044930;28;20139;-79
2023/12/09 01:13:43;;;;;;;30.55;12.02;;;7.70;99.90;;;;;;5040988;28;20079;-79
2023/12/09 01:16:09;;;;;;;29.13;12.23;;;7.60;99.90;;;;;;5046562;28;20056;-79
2023/12/09 01:18:34;;;;;;;26.85;11.65;;;7.60;99.90;;;;;;5040554;28;20153;-79
2023/12/09 01:21:00;;;;;;;29.27;11.77;;;7.60;99.90;;;;;;5042727;28;20060;-79
2023/12/09 01:23:26;;;;;;;33.35;12.82;;;7.50;99.90;;;;;;5043222;28;20034;-79
2023/12/09 01:25:51;;;;;;;34.13;12.95;;;7.60;99.90;;;;;;5045453;28;20044;-79
2023/12/09 01:28:17;;;;;;;30.05;11.70;;;7.60;99.90;;;;;;5047368;28;20068;-79
2023/12/09 01:30:43;;;;;;;32.72;11.95;;;7.60;99.90;;;;;;5035439;28;20166;-79
2023/12/09 01:33:09;;;;;;;33.30;11.82;;;7.60;99.90;;;;;;5044938;28;20231;-79
2023/12/09 01:35:34;;;;;;;34.15;11.55;;;7.60;99.90;;;;;;5037295;28;20056;-80
2023/12/09 01:38:00;;;;;;;30.13;11.32;;;7.60;99.90;;;;;;5036909;28;20525;-79
2023/12/09 01:40:25;;;;;;;25.45;12.27;;;7.60;99.90;;;;;;5046619;28;20040;-79
2023/12/09 01:42:51;;;;;;;39.85;12.32;;;7.60;99.90;;;;;;5033298;28;20059;-79
2023/12/09 01:45:17;;;;;;;27.85;11.68;;;7.60;99.90;;;;;;5035290;28;20495;-79
2023/12/09 01:47:43;;;;;;;37.95;12.68;;;7.60;99.90;;;;;;5041157;28;20710;-80
2023/12/09 01:50:09;;;;;;;35.63;13.00;;;7.60;99.90;;;;;;5044578;28;20558;-79
2023/12/09 01:52:36;;;;;;;31.40;11.82;;;7.60;99.90;;;;;;5035764;28;20049;-79
2023/12/09 01:55:02;;;;;;;33.03;12.47;;;7.60;99.90;;;;;;5040650;28;20052;-79
2023/12/09 01:57:28;;;;;;;29.67;11.05;;;7.60;99.90;;;;;;5044512;28;20291;-79
2023/12/09 01:59:54;;;;;;;32.33;12.35;;;7.50;99.90;;;;;;5045630;28;20571;-79
2023/12/09 02:02:20;;;;;;;49.65;12.77;;;7.60;99.90;;;;;;5041535;28;20131;-79
2023/12/09 02:04:45;;;;;;;31.58;11.85;;;7.60;99.90;;;;;;5036492;28;20049;-79
2023/12/09 02:07:11;;;;;;;36.80;12.02;;;7.60;99.90;;;;;;5054330;28;20047;-79
2023/12/09 02:09:39;;;;;;;35.55;11.30;;;7.60;99.90;;;;;;5041149;28;20041;-80
2023/12/09 02:12:14;;;;;;;35.67;12.13;;;7.60;99.90;;;;;;5045993;28;20206;-79
2023/12/09 02:14:54;;;;;;;37.92;12.48;;;7.60;99.90;;;;;;5043453;28;20063;-79
2023/12/09 02:17:23;;;;;;;30.40;11.57;;;7.60;99.90;;;;;;5037402;28;20041;-80
2023/12/09 02:19:51;;;;;;;30.27;11.10;;;7.60;99.90;;;;;;5042478;28;20052;-79
2023/12/09 02:22:16;;;;;;;34.40;11.68;;;7.60;99.90;;;;;;5045649;28;20041;-80
2023/12/09 02:24:42;;;;;;;40.67;11.85;;;7.60;99.90;;;;;;5044385;28;20253;-80
2023/12/09 02:27:12;;;;;;;33.53;11.32;;;7.60;99.90;;;;;;5044013;28;20052;-79
2023/12/09 02:30:03;;;;;;;30.35;9.57;;;7.60;99.90;;;;;;5041412;28;20048;-80
2023/12/09 02:32:31;;;;;;;32.63;10.93;;;7.60;99.90;;;;;;5059346;28;20057;-79
2023/12/09 02:34:58;;;;;;;28.38;10.15;;;7.70;99.90;;;;;;5042150;28;20056;-79
2023/12/09 02:37:27;;;;;;;27.52;10.98;;;7.70;99.90;;;;;;5045596;28;20071;-79
2023/12/09 02:39:53;;;;;;;24.10;10.50;;;7.60;99.90;;;;;;5034839;28;20048;-79
2023/12/09 02:42:19;;;;;;;32.28;9.65;;;7.70;99.90;;;;;;5049399;28;20171;-79
2023/12/09 02:44:45;;;;;;;28.05;10.43;;;7.70;99.90;;;;;;5042753;28;20075;-79
2023/12/09 02:47:14;;;;;;;29.35;9.95;;;7.60;99.90;;;;;;5036952;28;20171;-79
2023/12/09 02:49:41;;;;;;;36.33;10.98;;;7.60;99.90;;;;;;5042503;28;20040;-79
2023/12/09 02:52:07;;;;;;;45.58;11.68;;;7.70;99.90;;;;;;5040755;28;20050;-79
2023/12/09 02:54:32;;;;;;;28.60;9.55;;;7.70;99.90;;;;;;5035269;28;20381;-79
2023/12/09 02:56:58;;;;;;;29.08;9.88;;;7.70;99.90;;;;;;5042934;28;20127;-79
2023/12/09 02:59:24;;;;;;;29.88;10.00;;;7.70;99.90;;;;;;5042658;28;20052;-79
2023/12/09 03:01:49;;;;;;;30.45;9.40;;;7.70;99.90;;;;;;5041342;28;20045;-79
2023/12/09 03:04:15;;;;;;;28.95;9.85;;;7.70;99.90;;;;;;5039706;28;20128;-79
2023/12/09 03:06:41;;;;;;;32.33;9.55;;;7.70;99.90;;;;;;5032744;28;20053;-79
2023/12/09 03:09:06;;;;;;;27.52;9.75;;;7.70;99.90;;;;;;5043789;28;20051;-79
2023/12/09 03:11:32;;;;;;;35.88;10.45;;;7.70;99.90;;;;;;5043800;28;20052;-79
2023/12/09 03:13:58;;;;;;;34.45;10.95;;;7.70;99.90;;;;;;5040893;28;20111;-79
2023/12/09 03:16:23;;;;;;;31.42;10.73;;;7.70;99.90;;;;;;5045176;28;20504;-79
2023/12/09 03:18:49;;;;;;;29.05;10.63;;;7.70;99.90;;;;;;5043675;28;20480;-79
2023/12/09 03:21:15;;;;;;;23.30;9.82;;;7.70;99.90;;;;;;5046978;28;20056;-79
2023/12/09 03:23:45;;;;;;;27.15;9.55;;;7.70;99.90;;;;;;5039998;28;20434;-79
2023/12/09 03:26:18;;;;;;;31.05;11.00;;;7.70;99.90;;;;;;5046462;28;20091;-79
2023/12/09 03:28:44;;;;;;;23.17;10.15;;;7.70;99.90;;;;;;5035296;28;20153;-80
2023/12/09 03:31:14;;;;;;;27.42;10.40;;;7.70;99.90;;;;;;5033717;28;20041;-80
2023/12/09 03:33:41;;;;;;;25.17;10.15;;;7.60;99.90;;;;;;5045639;28;20124;-79
2023/12/09 03:36:09;;;;;;;28.38;10.80;;;7.70;99.90;;;;;;5047288;28;20043;-79
2023/12/09 03:38:35;;;;;;;26.27;9.63;;;7.70;99.90;;;;;;5041315;28;20090;-79
2023/12/09 03:41:04;;;;;;;29.65;10.70;;;7.70;99.90;;;;;;5047723;28;20041;-79
2023/12/09 03:43:29;;;;;;;27.67;10.40;;;7.70;99.90;;;;;;5043326;28;20055;-79
2023/12/09 03:45:55;;;;;;;33.47;12.73;;;7.70;99.90;;;;;;5042550;28;20038;-79
2023/12/09 03:48:20;;;;;;;26.33;10.38;;;7.70;99.90;;;;;;5041811;28;20487;-79
2023/12/09 03:50:46;;;;;;;33.13;9.57;;;7.70;99.90;;;;;;5043512;28;20053;-79
2023/12/09 03:53:11;;;;;;;25.52;9.88;;;7.60;99.90;;;;;;5044780;28;20033;-79
2023/12/09 03:55:37;;;;;;;30.77;9.00;;;7.70;99.90;;;;;;5042247;28;20049;-79
2023/12/09 03:58:05;;;;;;;26.05;9.20;;;7.70;99.90;;;;;;5035778;28;20090;-79
2023/12/09 04:00:31;;;;;;;32.55;10.30;;;7.60;99.90;;;;;;5034881;28;20057;-79
2023/12/09 04:02:57;;;;;;;28.65;9.80;;;7.70;99.90;;;;;;5045487;28;20163;-79
2023/12/09 04:05:22;;;;;;;27.27;8.65;;;7.70;99.90;;;;;;5045500;28;20139;-79
2023/12/09 04:07:48;;;;;;;22.75;8.55;;;7.50;99.90;;;;;;5040193;28;20084;-79
2023/12/09 04:10:14;;;;;;;29.20;9.88;;;7.60;99.90;;;;;;5047198;28;20492;-80
2023/12/09 04:12:40;;;;;;;28.55;9.27;;;7.60;99.90;;;;;;5044771;28;20128;-79
2023/12/09 04:15:07;;;;;;;23.73;9.88;;;7.50;99.90;;;;;;5046057;28;20104;-79
2023/12/09 04:17:33;;;;;;;28.73;9.32;;;7.60;99.90;;;;;;5039430;28;20155;-79
2023/12/09 04:19:58;;;;;;;26.13;8.88;;;7.60;99.90;;;;;;5045374;28;20124;-80
2023/12/09 04:22:25;;;;;;;29.23;9.68;;;7.60;99.90;;;;;;5041026;28;20966;-79
2023/12/09 04:24:50;;;;;;;26.73;9.45;;;7.60;99.90;;;;;;5046226;28;20053;-79
2023/12/09 04:27:16;;;;;;;26.08;9.00;;;7.60;99.90;;;;;;5040415;28;20063;-79
2023/12/09 04:29:42;;;;;;;26.88;8.10;;;7.60;99.90;;;;;;5042506;28;20048;-79
2023/12/09 04:32:08;;;;;;;28.48;9.10;;;7.70;99.90;;;;;;5037512;28;20095;-79
2023/12/09 04:34:35;;;;;;;24.17;9.73;;;7.60;99.90;;;;;;5047618;28;20072;-79
2023/12/09 04:37:01;;;;;;;25.27;8.48;;;7.60;99.90;;;;;;5037718;28;20053;-79
2023/12/09 04:39:27;;;;;;;25.08;10.20;;;7.60;99.90;;;;;;5044143;28;20033;-79
2023/12/09 04:41:53;;;;;;;19.88;9.07;;;7.60;99.90;;;;;;5045953;28;20500;-79
2023/12/09 04:44:18;;;;;;;24.02;8.38;;;7.60;99.90;;;;;;5044106;28;20037;-79
2023/12/09 04:46:44;;;;;;;28.80;8.98;;;7.50;99.90;;;;;;5046529;28;20048;-79
2023/12/09 04:49:10;;;;;;;30.17;9.43;;;7.50;99.90;;;;;;5044468;28;20045;-79
2023/12/09 04:51:36;;;;;;;25.20;8.85;;;7.50;99.90;;;;;;5042464;28;20081;-80
2023/12/09 04:54:02;;;;;;;23.13;8.50;;;7.60;99.90;;;;;;5040785;28;20120;-79
2023/12/09 04:56:28;;;;;;;25.52;9.32;;;7.50;99.90;;;;;;5041621;28;20041;-79
2023/12/09 04:58:53;;;;;;;23.15;9.18;;;7.50;99.90;;;;;;5044062;28;20088;-79
2023/12/09 05:01:19;;;;;;;26.85;9.30;;;7.60;99.90;;;;;;5045640;28;20435;-79
2023/12/09 05:03:45;;;;;;;29.02;9.35;;;7.50;99.90;;;;;;5044720;28;20072;-79
2023/12/09 05:06:10;;;;;;;24.67;8.25;;;7.50;99.90;;;;;;5042899;28;20123;-80
2023/12/09 05:08:36;;;;;;;16.98;8.10;;;7.40;99.90;;;;;;5046015;28;20041;-80
2023/12/09 05:11:01;;;;;;;27.30;9.95;;;7.50;99.90;;;;;;5047830;28;20052;-79
2023/12/09 05:13:27;;;;;;;23.48;9.35;;;7.50;99.90;;;;;;5042438;28;20040;-80
2023/12/09 05:15:53;;;;;;;23.80;8.60;;;7.40;99.90;;;;;;5045805;28;20408;-79
2023/12/09 05:18:18;;;;;;;27.33;9.55;;;7.50;99.90;;;;;;5039060;28;20607;-79
2023/12/09 05:20:45;;;;;;;24.65;8.30;;;7.50;99.90;;;;;;5047429;28;20914;-79
2023/12/09 05:23:10;;;;;;;28.33;8.35;;;7.40;99.90;;;;;;5041974;28;20041;-80
2023/12/09 05:25:36;;;;;;;23.83;8.77;;;7.40;99.90;;;;;;5037763;28;20399;-79
2023/12/09 05:28:01;;;;;;;31.75;8.57;;;7.50;99.90;;;;;;5041561;28;20124;-79
2023/12/09 05:30:28;;;;;;;31.17;9.07;;;7.50;99.90;;;;;;5035168;28;20059;-79
2023/12/09 05:32:53;;;;;;;22.30;7.50;;;7.40;99.90;;;;;;5043336;28;20045;-79
2023/12/09 05:35:19;;;;;;;27.75;8.88;;;7.50;99.90;;;;;;5041084;28;20040;-79
2023/12/09 05:37:44;;;;;;;21.90;7.70;;;7.50;99.90;;;;;;5035293;28;20390;-79
2023/12/09 05:40:11;;;;;;;28.90;8.73;;;7.50;99.90;;;;;;5036567;28;20029;-79
2023/12/09 05:42:37;;;;;;;28.50;8.10;;;7.40;99.90;;;;;;5043969;28;20092;-79
2023/12/09 05:45:03;;;;;;;22.42;8.65;;;7.50;99.90;;;;;;5043390;28;20447;-79
2023/12/09 05:47:29;;;;;;;24.17;8.60;;;7.50;99.90;;;;;;5038683;28;20049;-79
2023/12/09 05:49:54;;;;;;;31.52;8.25;;;7.50;99.90;;;;;;5037269;28;20044;-79
2023/12/09 05:52:20;;;;;;;18.58;7.43;;;7.40;99.90;;;;;;5042345;28;21860;-79
2023/12/09 05:54:46;;;;;;;21.73;7.40;;;7.40;99.90;;;;;;5042574;28;20048;-79
2023/12/09 05:57:11;;;;;;;18.55;7.35;;;7.40;99.90;;;;;;5038888;28;20036;-79
2023/12/09 05:59:37;;;;;;;21.73;7.35;;;7.40;99.90;;;;;;5043547;28;20053;-79
2023/12/09 06:02:03;;;;;;;20.95;7.82;;;7.40;99.90;;;;;;5041224;28;20124;-79
2023/12/09 06:04:29;;;;;;;22.70;8.20;;;7.40;99.90;;;;;;5037156;28;20049;-80
2023/12/09 06:06:54;;;;;;;22.20;7.95;;;7.40;99.90;;;;;;5039829;28;20400;-79
2023/12/09 06:09:20;;;;;;;26.30;7.63;;;7.40;99.90;;;;;;5047122;28;20049;-80
2023/12/09 06:11:46;;;;;;;18.60;7.00;;;7.40;99.90;;;;;;5044815;28;20092;-79
2023/12/09 06:14:11;;;;;;;20.60;7.63;;;7.40;99.90;;;;;;5038775;28;20041;-79
2023/12/09 06:16:37;;;;;;;27.73;7.95;;;7.40;99.90;;;;;;5046727;28;20052;-79
2023/12/09 06:19:03;;;;;;;25.73;8.35;;;7.40;99.90;;;;;;5038068;28;20033;-80
2023/12/09 06:21:28;;;;;;;22.48;6.60;;;7.40;99.90;;;;;;5043180;28;20041;-79
2023/12/09 06:23:54;;;;;;;26.75;7.50;;;7.40;99.90;;;;;;5039210;28;20564;-79
2023/12/09 06:26:20;;;;;;;21.42;7.97;;;7.40;99.90;;;;;;5038785;28;20423;-79
2023/12/09 06:28:46;;;;;;;18.45;6.65;;;7.40;99.90;;;;;;5032170;28;20616;-79
2023/12/09 06:31:11;;;;;;;22.00;6.88;;;7.40;99.90;;;;;;5038676;28;20664;-79
2023/12/09 06:33:37;;;;;;;24.73;7.10;;;7.50;99.90;;;;;;5044372;28;20055;-81
2023/12/09 06:36:04;;;;;;;21.40;6.78;;;7.30;99.90;;;;;;5035647;28;20489;-80
2023/12/09 06:38:29;;;;;;;21.00;6.20;;;7.40;99.90;;;;;;5044761;28;20143;-77
2023/12/09 06:40:55;;;;;;;21.98;6.85;;;7.50;99.90;;;;;;5048370;28;20052;-77
2023/12/09 06:43:21;;;;;;;25.23;7.13;;;7.40;99.90;;;;;;5034242;28;20444;-77
2023/12/09 06:45:47;;;;;;;17.35;6.05;;;7.40;99.90;;;;;;5041030;28;20059;-77
2023/12/09 06:48:13;;;;;;;20.38;7.00;;;7.40;99.90;;;;;;5037186;28;20033;-77
2023/12/09 06:50:39;;;;;;;18.10;6.35;;;7.40;99.90;;;;;;5067010;28;20045;-77
2023/12/09 06:53:05;;;;;;;17.55;5.43;;;7.40;99.90;;;;;;5042954;28;20168;-76
2023/12/09 06:55:30;;;;;;;20.40;6.15;;;7.40;99.90;;;;;;5037288;28;20625;-77
2023/12/09 06:57:56;;;;;;;19.58;5.60;;;7.30;99.90;;;;;;5035426;28;20561;-79
2023/12/09 07:00:22;;;;;;;22.70;6.63;;;7.30;99.90;;;;;;5043776;28;20060;-77
2023/12/09 07:02:48;;;;;;;20.85;5.95;;;7.30;99.90;;;;;;5040116;28;20374;-76
2023/12/09 07:05:14;;;;;;;18.80;6.00;;;7.30;99.90;;;;;;5038820;28;20465;-77
2023/12/09 07:07:40;;;;;;;17.77;5.85;;;7.30;99.90;;;;;;5046351;28;20064;-77
2023/12/09 07:10:07;;;;;;;12.48;5.18;;;7.20;99.90;;;;;;5048583;28;20041;-77
2023/12/09 07:12:32;;;;;;;16.50;5.32;;;7.20;99.90;;;;;;5044981;28;20053;-77
2023/12/09 07:14:59;;;;;;;16.63;5.00;;;7.20;99.90;;;;;;5043172;28;20059;-77
2023/12/09 07:17:27;;;;;;;17.27;4.45;;;7.10;99.90;;;;;;5050248;28;20734;-76
2023/12/09 07:19:52;;;;;;;19.52;4.55;;;7.10;99.90;;;;;;5042974;28;20041;-77
2023/12/09 07:22:19;;;;;;;8.63;3.65;;;7.10;99.90;;;;;;5040478;28;20548;-77
2023/12/09 07:24:46;;;;;;;18.90;4.85;;;7.00;99.90;;;;;;5045316;28;20068;-76
2023/12/09 07:27:12;;;;;;;13.93;4.00;;;7.00;99.90;;;;;;5049231;28;20770;-77
2023/12/09 07:29:37;;;;;;;12.27;3.55;;;7.00;99.90;;;;;;5035986;28;20038;-77
2023/12/09 07:32:04;;;;;;;9.63;3.80;;;6.90;99.90;;;;;;5039942;28;20068;-77
2023/12/09 07:34:29;;;;;;;18.65;3.83;;;6.90;99.90;;;;;;5048378;28;20063;-77
2023/12/09 07:36:56;;;;;;;16.17;4.47;;;6.80;99.90;;;;;;5042278;28;20554;-77
2023/12/09 07:39:22;;;;;;;14.27;4.78;;;6.80;99.90;;;;;;5038973;28;20081;-77
2023/12/09 07:41:50;;;;;;;17.08;4.07;;;6.80;99.90;;;;;;5046876;28;20107;-77
2023/12/09 07:44:20;;;;;;;13.57;4.13;;;6.80;99.90;;;;;;5040939;28;20074;-77
2023/12/09 07:46:50;;;;;;;19.23;4.18;;;6.70;99.90;;;;;;5038874;28;20075;-77
2023/12/09 07:49:16;;;;;;;23.23;4.38;;;6.70;99.90;;;;;;5042389;28;20459;-77
2023/12/09 07:51:42;;;;;;;11.57;4.05;;;6.70;99.90;;;;;;5043487;28;20041;-77
2023/12/09 07:54:08;;;;;;;16.77;4.20;;;6.70;99.90;;;;;;5045119;28;20045;-78
2023/12/09 07:56:33;;;;;;;12.23;3.83;;;6.70;99.90;;;;;;5045484;28;20098;-80
2023/12/09 07:58:59;;;;;;;17.80;3.47;;;6.60;99.90;;;;;;5041416;28;20033;-78
2023/12/09 08:01:26;;;;;;;10.27;4.00;;;6.60;99.90;;;;;;5040345;28;20049;-79
2023/12/09 08:03:52;;;;;;;16.25;3.80;;;6.60;99.90;;;;;;5043498;28;20045;-76
2023/12/09 08:06:17;;;;;;;13.23;3.78;;;6.60;99.90;;;;;;5042708;28;20420;-82
2023/12/09 08:08:43;;;;;;;12.88;3.63;;;6.60;99.90;;;;;;5046320;28;20428;-77
2023/12/09 08:11:09;;;;;;;10.57;3.08;;;6.60;99.90;;;;;;5049641;28;20409;-84
2023/12/09 08:13:35;;;;;;;12.70;3.92;;;6.60;99.90;;;;;;5050673;28;20045;-76
2023/12/09 08:16:00;;;;;;;12.05;3.47;;;6.60;99.90;;;;;;5049541;28;20522;-77
2023/12/09 08:18:26;;;;;;;13.88;3.33;;;6.60;99.90;;;;;;5047256;28;20040;-77
2023/12/09 08:20:52;;;;;;;12.32;3.08;;;6.60;99.90;;;;;;5034146;28;20045;-77
2023/12/09 08:23:18;;;;;;;14.45;3.00;;;6.60;99.90;;;;;;5048721;28;20037;-78
2023/12/09 08:25:44;;;;;;;11.60;3.50;;;6.60;99.90;;;;;;5039099;28;20487;-79
2023/12/09 08:28:10;;;;;;;10.93;2.67;;;6.70;99.90;;;;;;5044711;28;20520;-77
2023/12/09 08:30:36;;;;;;;14.90;3.20;;;6.60;99.90;;;;;;5048206;28;20041;-77
2023/12/09 08:33:01;;;;;;;14.70;3.30;;;6.60;99.90;;;;;;5050468;28;20132;-76
2023/12/09 08:35:27;;;;;;;17.02;3.40;;;6.60;99.90;;;;;;5038466;28;20517;-77
2023/12/09 08:37:53;;;;;;;18.27;3.33;;;6.60;99.90;;;;;;5050477;28;20040;-77
2023/12/09 08:40:18;;;;;;;11.02;3.15;;;6.60;99.90;;;;;;5051560;28;20053;-76
2023/12/09 08:42:45;;;;;;;13.13;3.20;;;6.70;99.90;;;;;;5042210;28;20394;-75
2023/12/09 08:45:13;;;;;;;14.18;3.10;;;6.70;99.90;;;;;;5047918;28;20045;-77
2023/12/09 08:47:39;;;;;;;11.25;2.35;;;6.70;99.90;;;;;;5051759;28;20511;-80
2023/12/09 08:50:06;;;;;;;20.48;4.72;;;6.70;99.90;;;;;;5047367;28;20413;-78
2023/12/09 08:52:32;;;;;;;14.20;3.17;;;6.70;99.90;;;;;;5052984;28;20044;-78
2023/12/09 08:54:58;;;;;;;16.63;5.53;;;6.70;99.90;;;;;;5049082;28;20046;-78
2023/12/09 08:57:27;;;;;;;19.77;7.53;;;6.70;99.90;;;;;;5047626;28;20045;-78
2023/12/09 08:59:53;;;;;;;11.50;3.72;;;6.80;99.90;;;;;;5048132;28;20136;-78
2023/12/09 09:02:20;;;;;;;13.85;3.55;;;6.70;99.90;;;;;;5042249;28;20722;-78
2023/12/09 09:04:47;;;;;;;13.52;3.05;;;6.80;99.90;;;;;;5038526;28;20128;-78
2023/12/09 09:07:13;;;;;;;10.52;2.63;;;6.80;99.90;;;;;;5052790;28;20171;-78
2023/12/09 09:09:39;;;;;;;9.60;2.72;;;6.80;99.90;;;;;;5050808;28;20513;-79
2023/12/09 09:12:06;;;;;;;11.32;3.17;;;6.90;99.90;;;;;;5040937;28;20124;-77
2023/12/09 09:14:36;;;;;;;10.77;3.60;;;6.90;99.90;;;;;;5036582;28;20045;-77
2023/12/09 09:17:05;;;;;;;17.17;3.35;;;6.90;99.90;;;;;;5053659;28;20045;-77
2023/12/09 09:19:31;;;;;;;20.33;3.70;;;6.90;99.90;;;;;;5044469;28;20045;-77
2023/12/09 09:21:57;;;;;;;13.73;2.95;;;7.00;99.90;;;;;;5045519;28;20056;-76
2023/12/09 09:24:23;;;;;;;9.25;3.13;;;7.00;99.90;;;;;;5046373;28;20098;-77
2023/12/09 09:26:48;;;;;;;12.13;3.85;;;7.00;99.90;;;;;;5049112;28;20056;-76
2023/12/09 09:29:14;;;;;;;11.88;3.92;;;6.90;99.90;;;;;;5041495;28;20041;-76
2023/12/09 09:31:40;;;;;;;16.98;5.55;;;7.00;99.90;;;;;;5038463;28;20411;-80
2023/12/09 09:34:06;;;;;;;17.48;6.35;;;7.00;99.90;;;;;;5055253;28;20045;-77
2023/12/09 09:36:32;;;;;;;18.70;5.40;;;7.00;99.90;;;;;;5054272;28;20044;-81
2023/12/09 09:38:57;;;;;;;15.38;4.07;;;7.00;99.90;;;;;;5045364;28;20396;-79
2023/12/09 09:41:31;;;;;;;12.02;3.58;;;7.10;99.90;;;;;;5048112;28;20094;-79
2023/12/09 09:44:05;;;;;;;16.75;4.30;;;7.10;99.90;;;;;;5047158;28;20033;-80
2023/12/09 09:46:32;;;;;;;17.75;4.88;;;7.10;99.90;;;;;;5046810;28;20055;-84
2023/12/09 09:48:58;;;;;;;;;;;7.20;99.90;;;;;;5049119;28;20033;-83
2023/12/09 09:51:29;;;;;;;14.45;3.42;;;7.10;99.90;;;;;;5044416;28;19927;-84
2023/12/09 09:54:06;;;;;;;13.90;4.00;;;7.20;99.90;;;;;;5046875;28;20044;-83
2023/12/09 09:56:33;;;;;;;13.65;3.58;;;7.30;99.90;;;;;;5045424;28;20762;-83
2023/12/09 09:58:59;;;;;;;18.33;3.93;;;7.30;99.90;;;;;;5045601;28;20056;-82
2023/12/09 10:01:27;;;;;;;11.63;3.33;;;7.40;99.90;;;;;;5045026;28;20056;-83
2023/12/09 10:03:53;;;;;;;9.50;2.97;;;7.40;99.90;;;;;;5047214;28;20041;-83
2023/12/09 10:06:19;;;;;;;13.10;3.30;;;7.40;99.90;;;;;;5046202;28;20107;-78
2023/12/09 10:08:45;;;;;;;9.75;3.38;;;7.40;99.90;;;;;;5051073;28;20098;-79
2023/12/09 10:11:11;;;;;;;11.18;3.53;;;7.50;99.90;;;;;;5041561;28;20067;-76
2023/12/09 10:13:37;;;;;;;11.65;3.05;;;7.50;99.90;;;;;;5047081;28;20037;-78
2023/12/09 10:16:03;;;;;;;12.38;3.47;;;7.60;99.90;;;;;;5048464;28;20103;-77
2023/12/09 10:18:30;;;;;;;12.55;2.65;;;7.60;99.90;;;;;;5048319;28;20076;-78
2023/12/09 10:20:56;;;;;;;7.32;2.55;;;7.70;99.90;;;;;;5045133;28;20052;-77
2023/12/09 10:23:22;;;;;;;9.90;2.85;;;7.80;99.90;;;;;;5049783;28;20044;-77
2023/12/09 10:25:48;;;;;;;9.35;2.65;;;7.80;99.90;;;;;;5043464;28;20055;-76
2023/12/09 10:28:14;;;;;;;7.38;2.38;;;7.90;99.90;;;;;;5042571;28;20049;-77
2023/12/09 10:30:43;;;;;;;12.10;2.40;;;7.90;99.90;;;;;;5038502;28;20068;-78
2023/12/09 10:33:10;;;;;;;8.68;2.30;;;7.90;99.90;;;;;;5038178;28;20696;-76
2023/12/09 10:35:36;;;;;;;10.77;3.60;;;8.00;99.90;;;;;;5042195;28;20052;-78
2023/12/09 10:38:04;;;;;;;9.27;3.00;;;8.10;99.90;;;;;;5045470;28;20131;-76
2023/12/09 10:40:31;;;;;;;14.63;3.30;;;8.10;99.90;;;;;;5051851;28;20068;-78
2023/12/09 10:42:57;;;;;;;23.98;2.58;;;8.10;99.90;;;;;;5049265;28;21524;-78
2023/12/09 10:45:23;;;;;;;12.68;2.65;;;8.10;99.90;;;;;;5047712;28;20154;-76
2023/12/09 10:47:48;;;;;;;7.90;2.30;;;8.10;99.90;;;;;;5049570;28;20071;-76
2023/12/09 10:50:14;;;;;;;10.88;2.50;;;8.10;99.90;;;;;;5060312;28;20488;-76
2023/12/09 10:52:40;;;;;;;6.03;2.03;;;8.10;99.90;;;;;;5044270;28;20045;-79
2023/12/09 10:55:06;;;;;;;12.40;2.50;;;8.20;99.90;;;;;;5049781;28;20056;-80
2023/12/09 10:57:33;;;;;;;9.82;2.70;;;8.10;99.90;;;;;;5049539;28;20048;-79
2023/12/09 11:00:01;;;;;;;6.53;2.50;;;8.10;99.90;;;;;;5052049;28;20057;-85
2023/12/09 11:02:26;;;;;;;;;;;8.10;99.90;;;;;;5050070;28;20045;-78
2023/12/09 11:04:53;;;;;;;6.10;2.08;;;8.10;99.90;;;;;;5050352;28;19921;-86
2023/12/09 11:07:19;;;;;;;8.73;2.40;;;8.10;99.90;;;;;;5051646;28;20041;-82
2023/12/09 11:09:46;;;;;;;7.55;2.30;;;8.00;99.90;;;;;;5048136;28;20041;-82
2023/12/09 11:12:26;;;;;;;10.55;2.83;;;8.10;99.90;;;;;;5051782;28;20133;-78
2023/12/09 11:14:52;;;;;;;7.97;2.30;;;8.10;99.90;;;;;;5049419;28;20057;-79
2023/12/09 11:17:37;;;;;;;6.63;2.03;;;8.10;99.90;;;;;;5046931;28;20045;-77
2023/12/09 11:20:09;;;;;;;6.78;1.90;;;8.20;99.90;;;;;;5047902;28;20041;-79
2023/12/09 11:22:43;;;;;;;11.00;2.47;;;8.20;99.90;;;;;;5046678;28;20163;-78
2023/12/09 11:25:10;;;;;;;7.72;2.22;;;8.20;99.90;;;;;;5051630;28;20041;-77
2023/12/09 11:27:37;;;;;;;6.78;1.80;;;8.20;99.90;;;;;;5048081;28;20076;-77
2023/12/09 11:30:03;;;;;;;6.07;1.80;;;8.20;99.90;;;;;;5048901;28;20045;-80
2023/12/09 11:32:30;;;;;;;5.95;2.10;;;8.20;99.90;;;;;;5048906;28;20075;-78
2023/12/09 11:34:57;;;;;;;7.47;2.20;;;8.20;99.90;;;;;;5050050;28;20194;-78
2023/12/09 11:37:26;;;;;;;5.10;1.80;;;8.30;99.90;;;;;;5050707;28;20066;-83
2023/12/09 11:39:54;;;;;;;5.40;1.70;;;8.30;99.90;;;;;;5049501;28;20080;-80
2023/12/09 11:42:21;;;;;;;7.47;2.15;;;8.30;99.90;;;;;;5050183;28;20041;-83
2023/12/09 11:44:47;;;;;;;9.73;2.42;;;8.30;99.90;;;;;;5046253;28;20045;-81
2023/12/09 11:47:13;;;;;;;5.85;1.80;;;8.30;99.90;;;;;;5076656;28;20051;-80
2023/12/09 11:49:40;;;;;;;9.48;2.20;;;8.30;99.90;;;;;;5049079;28;20045;-78
2023/12/09 11:52:07;;;;;;;5.40;1.75;;;8.30;99.90;;;;;;5044899;28;20160;-76
2023/12/09 11:54:33;;;;;;;9.68;2.20;;;8.30;99.90;;;;;;5043752;28;20049;-77
2023/12/09 11:56:59;;;;;;;6.53;2.25;;;8.30;99.90;;;;;;5046547;28;20130;-77
2023/12/09 11:59:25;;;;;;;6.82;1.92;;;8.30;99.90;;;;;;5049080;28;20085;-76
2023/12/09 12:01:51;;;;;;;11.07;2.33;;;8.20;99.90;;;;;;5043764;28;20099;-74
2023/12/09 12:04:17;;;;;;;6.28;2.08;;;8.20;99.90;;;;;;5049504;28;20052;-75
2023/12/09 12:06:42;;;;;;;8.75;2.47;;;8.20;99.90;;;;;;5047166;28;20045;-75
2023/12/09 12:09:09;;;;;;;7.28;2.03;;;8.20;99.90;;;;;;5038710;28;20140;-75
2023/12/09 12:11:35;;;;;;;6.22;2.00;;;8.20;99.90;;;;;;5044259;28;20707;-76
2023/12/09 12:14:00;;;;;;;11.10;2.03;;;8.20;99.90;;;;;;5046760;28;20033;-75
2023/12/09 12:16:26;;;;;;;9.95;2.63;;;8.20;99.90;;;;;;5046278;28;20098;-76
2023/12/09 12:18:55;;;;;;;4.85;2.00;;;8.20;99.90;;;;;;5046225;28;20067;-75
2023/12/09 12:21:21;;;;;;;5.68;1.90;;;8.20;99.90;;;;;;5070359;28;20068;-77
2023/12/09 12:23:51;;;;;;;8.77;2.78;;;8.20;99.90;;;;;;5048373;28;20045;-76
2023/12/09 12:26:17;;;;;;;8.23;2.92;;;8.20;99.90;;;;;;5042980;28;20049;-78
2023/12/09 12:28:48;;;;;;;7.07;2.40;;;8.20;99.90;;;;;;5042584;28;20071;-77
2023/12/09 12:31:13;;;;;;;7.05;2.47;;;8.20;99.90;;;;;;5049643;28;20717;-78
2023/12/09 12:33:39;;;;;;;8.70;2.35;;;8.20;99.90;;;;;;5048604;28;20128;-77
2023/12/09 12:36:06;;;;;;;10.32;2.45;;;8.20;99.90;;;;;;5048011;28;20036;-78
2023/12/09 12:38:32;;;;;;;8.25;2.53;;;8.20;99.90;;;;;;5046704;28;20068;-78
2023/12/09 12:40:58;;;;;;;9.50;2.50;;;8.20;99.90;;;;;;5046597;28;20041;-78